createdAt,value
2019-05-25T00:02:14.596Z,2.17
2019-05-25T00:04:43.196Z,1.80
2019-05-25T00:07:11.892Z,2.00
2019-05-25T00:09:40.465Z,2.00
2019-05-25T00:12:09.279Z,2.33
2019-05-25T00:14:37.953Z,2.20
2019-05-25T00:17:06.583Z,2.13
2019-05-25T00:19:35.283Z,2.60
2019-05-25T00:22:03.979Z,2.20
2019-05-25T00:24:32.471Z,2.60
2019-05-25T00:27:01.573Z,2.23
2019-05-25T00:29:30.158Z,2.10
2019-05-25T00:31:58.802Z,2.23
2019-05-25T00:34:27.370Z,2.70
2019-05-25T00:36:56.046Z,2.80
2019-05-25T00:39:24.633Z,3.23
2019-05-25T00:41:53.430Z,2.90
2019-05-25T00:44:21.998Z,3.07
2019-05-25T00:46:50.560Z,3.73
2019-05-25T00:49:19.238Z,3.70
2019-05-25T00:51:47.955Z,3.80
2019-05-25T00:54:27.503Z,3.90
2019-05-25T00:56:46.741Z,4.40
2019-05-25T00:59:15.553Z,3.80
2019-05-25T01:01:44.100Z,3.77
2019-05-25T01:04:12.584Z,3.60
2019-05-25T01:06:41.196Z,4.33
2019-05-25T01:09:09.980Z,3.60
2019-05-25T01:11:38.528Z,3.93
2019-05-25T01:14:07.161Z,4.23
2019-05-25T01:16:35.731Z,3.93
2019-05-25T01:19:04.453Z,3.90
2019-05-25T01:21:33.456Z,3.20
2019-05-25T01:24:02.148Z,4.03
2019-05-25T01:26:30.718Z,4.00
2019-05-25T01:28:59.359Z,4.87
2019-05-25T01:31:28.016Z,3.73
2019-05-25T01:33:56.567Z,4.30
2019-05-25T01:36:25.139Z,4.03
2019-05-25T01:38:54.322Z,4.37
2019-05-25T01:41:22.861Z,4.17
2019-05-25T01:43:51.380Z,3.97
2019-05-25T01:46:20.003Z,3.97
2019-05-25T01:48:48.543Z,4.03
2019-05-25T01:51:17.047Z,4.93
2019-05-25T01:53:45.623Z,4.97
2019-05-25T01:56:14.108Z,5.23
2019-05-25T01:58:42.690Z,4.30
2019-05-25T02:01:11.387Z,5.10
2019-05-25T02:03:40.033Z,5.40
2019-05-25T02:06:08.617Z,5.90
2019-05-25T02:08:37.228Z,5.43
2019-05-25T02:11:05.723Z,5.40
2019-05-25T02:13:34.363Z,5.67
2019-05-25T02:16:02.848Z,5.97
2019-05-25T02:18:31.403Z,6.93
2019-05-25T02:20:59.910Z,6.87
2019-05-25T02:23:28.467Z,6.60
2019-05-25T02:25:57.015Z,6.50
2019-05-25T02:28:25.569Z,8.00
2019-05-25T02:30:54.123Z,7.80
2019-05-25T02:33:22.674Z,8.10
2019-05-25T02:35:51.253Z,8.07
2019-05-25T02:38:19.798Z,7.97
2019-05-25T02:40:48.350Z,8.43
2019-05-25T02:43:16.857Z,8.53
2019-05-25T02:45:45.571Z,8.83
2019-05-25T02:48:14.185Z,9.53
2019-05-25T02:50:42.815Z,8.73
2019-05-25T02:53:11.293Z,8.53
2019-05-25T02:55:40.010Z,8.30
2019-05-25T02:58:08.591Z,8.53
2019-05-25T03:00:37.263Z,8.07
2019-05-25T03:03:06.098Z,7.97
2019-05-25T03:05:34.802Z,7.97
2019-05-25T03:08:03.808Z,8.00
2019-05-25T03:10:33.100Z,8.43
2019-05-25T03:13:03.479Z,7.80
2019-05-25T03:15:32.288Z,9.03
2019-05-25T03:18:01.118Z,8.80
2019-05-25T03:20:29.727Z,9.30
2019-05-25T03:22:58.230Z,8.97
2019-05-25T03:25:26.853Z,9.20
2019-05-25T03:27:55.439Z,9.70
2019-05-25T03:30:29.945Z,10.03
2019-05-25T03:32:58.475Z,9.40
2019-05-25T03:35:27.204Z,9.00
2019-05-25T03:37:55.968Z,9.67
2019-05-25T03:40:24.524Z,10.73
2019-05-25T03:42:53.529Z,10.83
2019-05-25T03:45:22.109Z,10.80
2019-05-25T03:47:50.742Z,10.80
2019-05-25T03:50:19.584Z,14.27
2019-05-25T03:52:48.216Z,13.10
2019-05-25T03:55:16.899Z,13.77
2019-05-25T03:57:45.474Z,12.60
2019-05-25T04:00:14.579Z,12.20
2019-05-25T04:02:43.284Z,13.07
2019-05-25T04:05:12.016Z,13.90
2019-05-25T04:07:40.535Z,14.73
2019-05-25T04:10:09.208Z,14.77
2019-05-25T04:12:37.855Z,14.57
2019-05-25T04:15:07.447Z,15.17
2019-05-25T04:17:35.957Z,14.57
2019-05-25T04:20:06.616Z,13.83
2019-05-25T04:22:35.205Z,14.37
2019-05-25T04:25:04.587Z,15.40
2019-05-25T04:27:33.286Z,15.67
2019-05-25T04:30:01.923Z,15.23
2019-05-25T04:32:30.482Z,16.40
2019-05-25T04:34:59.087Z,14.83
2019-05-25T04:37:27.711Z,15.97
2019-05-25T04:39:56.187Z,16.90
2019-05-25T04:42:24.695Z,15.80
2019-05-25T04:44:53.212Z,16.67
2019-05-25T04:47:27.010Z,16.43
2019-05-25T04:49:52.111Z,18.07
2019-05-25T04:52:20.668Z,15.90
2019-05-25T04:54:49.222Z,17.00
2019-05-25T04:57:17.962Z,17.20
2019-05-25T04:59:46.447Z,15.07
2019-05-25T05:02:15.101Z,16.70
2019-05-25T05:04:43.657Z,15.60
2019-05-25T05:07:12.205Z,16.10
2019-05-25T05:09:40.708Z,16.80
2019-05-25T05:12:09.298Z,16.23
2019-05-25T05:14:37.880Z,16.13
2019-05-25T05:17:06.587Z,16.87
2019-05-25T05:19:35.118Z,16.20
2019-05-25T05:22:05.952Z,17.37
2019-05-25T05:24:34.129Z,15.73
2019-05-25T05:27:02.697Z,16.73
2019-05-25T05:29:31.328Z,17.10
2019-05-25T05:31:59.953Z,17.60
2019-05-25T05:34:28.606Z,16.63
2019-05-25T05:36:57.244Z,15.97
2019-05-25T05:39:28.010Z,18.00
2019-05-25T05:41:58.852Z,16.27
2019-05-25T05:44:28.277Z,14.97
2019-05-25T05:46:59.118Z,15.10
2019-05-25T05:49:29.585Z,15.43
2019-05-25T05:52:01.174Z,14.60
2019-05-25T05:54:31.083Z,13.80
2019-05-25T05:57:11.633Z,13.97
2019-05-25T05:59:29.967Z,13.83
2019-05-25T06:01:58.610Z,13.03
2019-05-25T06:04:27.189Z,13.27
2019-05-25T06:06:55.746Z,12.33
2019-05-25T06:09:24.328Z,12.13
2019-05-25T06:11:52.980Z,11.90
2019-05-25T06:14:21.599Z,11.90
2019-05-25T06:16:50.149Z,11.20
2019-05-25T06:19:18.718Z,11.60
2019-05-25T06:21:47.274Z,11.73
2019-05-25T06:24:15.761Z,11.57
2019-05-25T06:26:44.363Z,11.63
2019-05-25T06:29:13.097Z,11.70
2019-05-25T06:31:41.667Z,12.57
2019-05-25T06:34:10.247Z,11.70
2019-05-25T06:36:38.852Z,10.83
2019-05-25T06:39:08.302Z,10.57
2019-05-25T06:41:36.872Z,10.97
2019-05-25T06:44:05.909Z,11.00
2019-05-25T06:46:34.515Z,11.20
2019-05-25T06:49:03.155Z,10.67
2019-05-25T06:51:31.708Z,11.00
2019-05-25T06:54:00.212Z,9.33
2019-05-25T06:56:29.251Z,9.77
2019-05-25T06:58:57.739Z,8.80
2019-05-25T07:01:26.293Z,9.60
2019-05-25T07:03:55.346Z,9.97
2019-05-25T07:06:23.884Z,9.23
2019-05-25T07:08:52.423Z,8.27
2019-05-25T07:11:20.925Z,8.07
2019-05-25T07:13:49.703Z,7.77
2019-05-25T07:16:18.327Z,7.20
2019-05-25T07:18:46.896Z,6.50
2019-05-25T07:21:15.531Z,6.67
2019-05-25T07:23:44.101Z,6.87
2019-05-25T07:26:12.752Z,6.30
2019-05-25T07:28:41.799Z,5.93
2019-05-25T07:31:10.406Z,6.40
2019-05-25T07:33:39.109Z,6.20
2019-05-25T07:36:08.076Z,6.90
2019-05-25T07:38:36.893Z,5.63
2019-05-25T07:41:05.491Z,5.80
2019-05-25T07:43:34.040Z,5.03
2019-05-25T07:46:02.517Z,5.13
2019-05-25T07:48:31.087Z,5.40
2019-05-25T07:50:59.724Z,5.30
2019-05-25T07:53:28.288Z,5.60
2019-05-25T07:55:56.815Z,4.40
2019-05-25T07:58:25.385Z,4.80
2019-05-25T08:00:53.928Z,5.00
2019-05-25T08:03:22.758Z,4.30
2019-05-25T08:05:51.369Z,4.30
2019-05-25T08:08:19.873Z,4.30
2019-05-25T08:10:48.516Z,4.53
2019-05-25T08:13:17.010Z,4.13
2019-05-25T08:15:45.504Z,3.60
2019-05-25T08:18:14.105Z,4.50
2019-05-25T08:20:42.778Z,5.20
2019-05-25T08:23:11.528Z,6.03
2019-05-25T08:25:40.171Z,5.93
2019-05-25T08:28:08.762Z,6.17
2019-05-25T08:30:37.368Z,4.80
2019-05-25T08:33:06.050Z,4.07
2019-05-25T08:35:34.711Z,3.80
2019-05-25T08:38:03.305Z,3.90
2019-05-25T08:40:31.939Z,3.27
2019-05-25T08:43:00.532Z,3.40
2019-05-25T08:45:29.196Z,3.23
2019-05-25T08:47:58.713Z,3.30
2019-05-25T08:50:37.986Z,3.73
2019-05-25T08:52:57.432Z,3.47
2019-05-25T08:55:26.346Z,3.00
2019-05-25T08:57:54.901Z,3.00
2019-05-25T09:00:23.719Z,2.53
2019-05-25T09:02:52.329Z,2.70
2019-05-25T09:05:20.991Z,2.33
2019-05-25T09:07:49.531Z,2.40
2019-05-25T09:10:19.045Z,1.97
2019-05-25T09:12:47.622Z,2.20
2019-05-25T09:15:23.283Z,2.60
2019-05-25T09:17:51.872Z,3.00
2019-05-25T09:20:20.556Z,2.70
2019-05-25T09:22:49.213Z,2.23
2019-05-25T09:25:18.061Z,1.90
2019-05-25T09:27:46.753Z,1.90
2019-05-25T09:30:15.771Z,2.17
2019-05-25T09:32:44.317Z,2.20
2019-05-25T09:35:13.027Z,2.30
2019-05-25T09:37:41.584Z,2.10
2019-05-25T09:40:10.796Z,2.60
2019-05-25T09:42:39.939Z,2.30
2019-05-25T09:45:09.352Z,2.00
2019-05-25T09:47:37.974Z,2.43
2019-05-25T09:50:07.480Z,2.70
2019-05-25T09:52:36.124Z,2.20
2019-05-25T09:55:09.572Z,2.60
2019-05-25T09:57:41.431Z,2.40
2019-05-25T10:00:13.601Z,2.50
2019-05-25T10:02:43.087Z,2.90
2019-05-25T10:05:12.407Z,2.70
2019-05-25T10:07:40.986Z,2.30
2019-05-25T10:10:12.276Z,2.20
2019-05-25T10:12:40.924Z,2.50
2019-05-25T10:15:10.556Z,2.40
2019-05-25T10:17:39.190Z,2.13
2019-05-25T10:20:08.377Z,2.60
2019-05-25T10:22:36.995Z,2.70
2019-05-25T10:25:09.364Z,2.43
2019-05-25T10:27:38.014Z,2.40
2019-05-25T10:30:07.922Z,2.50
2019-05-25T10:32:36.494Z,2.00
2019-05-25T10:35:07.243Z,2.37
2019-05-25T10:37:55.205Z,2.70
2019-05-25T10:40:24.028Z,2.50
2019-05-25T10:42:52.578Z,2.50
2019-05-25T10:45:21.994Z,2.60
2019-05-25T10:47:50.632Z,2.20
2019-05-25T10:50:19.546Z,2.13
2019-05-25T10:52:48.119Z,2.00
2019-05-25T10:55:17.128Z,2.30
2019-05-25T10:57:45.704Z,2.30
2019-05-25T11:00:15.211Z,2.53
2019-05-25T11:02:43.875Z,3.00
2019-05-25T11:05:14.483Z,3.07
2019-05-25T11:07:43.288Z,2.57
2019-05-25T11:10:12.594Z,2.33
2019-05-25T11:12:41.337Z,2.93
2019-05-25T11:15:10.901Z,2.67
2019-05-25T11:17:39.773Z,1.90
2019-05-25T11:20:09.396Z,2.17
2019-05-25T11:22:38.179Z,2.20
2019-05-25T11:25:08.265Z,2.63
2019-05-25T11:27:36.918Z,2.20
2019-05-25T11:30:09.387Z,2.70
2019-05-25T11:32:37.516Z,2.50
2019-05-25T11:35:07.223Z,2.60
2019-05-25T11:37:36.009Z,2.43
2019-05-25T11:40:08.367Z,2.40
2019-05-25T11:42:37.120Z,2.67
2019-05-25T11:45:07.414Z,2.10
2019-05-25T11:47:36.168Z,1.40
2019-05-25T11:50:09.355Z,1.67
2019-05-25T11:52:38.253Z,2.10
2019-05-25T11:55:10.319Z,2.10
2019-05-25T11:57:38.966Z,2.23
2019-05-25T12:00:23.760Z,2.40
2019-05-25T12:02:40.263Z,2.07
2019-05-25T12:05:09.732Z,2.00
2019-05-25T12:07:38.218Z,2.10
2019-05-25T12:10:07.269Z,2.03
2019-05-25T12:12:35.888Z,2.63
2019-05-25T12:15:06.673Z,2.43
2019-05-25T12:17:35.478Z,2.37
2019-05-25T12:20:05.318Z,2.50
2019-05-25T12:22:33.905Z,2.63
2019-05-25T12:25:02.605Z,2.50
2019-05-25T12:27:31.232Z,2.37
2019-05-25T12:29:59.830Z,2.03
2019-05-25T12:32:28.536Z,2.27
2019-05-25T12:34:57.129Z,2.30
2019-05-25T12:37:25.813Z,2.00
2019-05-25T12:39:54.458Z,2.33
2019-05-25T12:42:23.096Z,1.47
2019-05-25T12:44:51.587Z,2.00
2019-05-25T12:47:20.155Z,2.13
2019-05-25T12:49:50.977Z,2.23
2019-05-25T12:52:18.959Z,2.17
2019-05-25T12:54:47.513Z,2.17
2019-05-25T12:57:16.114Z,1.83
2019-05-25T12:59:44.751Z,2.20
2019-05-25T13:02:13.464Z,2.27
2019-05-25T13:04:42.090Z,2.37
2019-05-25T13:07:10.740Z,3.00
2019-05-25T13:09:39.318Z,2.10
2019-05-25T13:12:07.959Z,2.00
2019-05-25T13:14:36.598Z,1.93
2019-05-25T13:17:05.245Z,2.47
2019-05-25T13:19:33.902Z,2.57
2019-05-25T13:22:02.449Z,2.73
2019-05-25T13:24:31.113Z,2.50
2019-05-25T13:26:59.713Z,2.70
2019-05-25T13:29:28.330Z,2.43
2019-05-25T13:31:56.946Z,2.80
2019-05-25T13:34:25.504Z,3.03
2019-05-25T13:36:54.088Z,3.63
2019-05-25T13:39:22.705Z,2.70
2019-05-25T13:41:51.525Z,2.90
2019-05-25T13:44:20.294Z,3.10
2019-05-25T13:46:48.877Z,3.17
2019-05-25T13:49:17.445Z,2.90
2019-05-25T13:51:46.007Z,2.80
2019-05-25T13:54:14.572Z,3.90
2019-05-25T13:56:43.139Z,2.90
2019-05-25T13:59:11.693Z,3.13
2019-05-25T14:01:40.324Z,3.17
2019-05-25T14:04:08.968Z,2.60
2019-05-25T14:20:36.552Z,3.00
2019-05-25T14:23:05.315Z,2.43
2019-05-25T14:25:33.996Z,2.87
2019-05-25T14:28:02.510Z,2.50
2019-05-25T14:30:31.104Z,2.63
2019-05-25T14:32:59.656Z,2.50
2019-05-25T14:35:28.307Z,2.37
2019-05-25T14:37:56.951Z,2.33
2019-05-25T14:40:25.588Z,2.63
2019-05-25T14:42:54.147Z,3.10
2019-05-25T14:45:22.791Z,2.83
2019-05-25T14:47:51.356Z,2.90
2019-05-25T14:50:20.552Z,3.00
2019-05-25T14:52:49.110Z,2.47
2019-05-25T14:55:17.746Z,2.63
2019-05-25T14:57:46.399Z,2.77
2019-05-25T15:00:23.412Z,3.00
2019-05-25T15:02:52.047Z,2.77
2019-05-25T15:05:20.659Z,2.37
2019-05-25T15:07:49.159Z,2.90
2019-05-25T15:10:17.955Z,2.03
2019-05-25T15:12:46.667Z,2.50
2019-05-25T15:15:15.503Z,2.90
2019-05-25T15:17:44.095Z,2.70
2019-05-25T15:20:13.828Z,2.93
2019-05-25T15:22:42.467Z,2.27
2019-05-25T15:25:11.949Z,2.37
2019-05-25T15:27:40.517Z,2.53
2019-05-25T15:30:09.292Z,2.10
2019-05-25T15:32:37.990Z,2.13
2019-05-25T15:35:07.334Z,2.40
2019-05-25T15:37:35.874Z,2.83
2019-05-25T15:40:09.708Z,2.40
2019-05-25T15:42:38.247Z,2.40
2019-05-25T15:45:07.278Z,1.90
2019-05-25T15:47:35.839Z,2.40
2019-05-25T15:50:09.296Z,3.13
2019-05-25T15:52:37.960Z,3.50
2019-05-25T15:55:07.771Z,2.80
2019-05-25T15:57:36.498Z,3.13
2019-05-25T16:00:10.572Z,2.43
2019-05-25T16:02:39.300Z,2.40
2019-05-25T16:05:09.265Z,2.00
2019-05-25T16:07:40.152Z,2.37
2019-05-25T16:10:09.532Z,2.30
2019-05-25T16:12:38.097Z,3.40
2019-05-25T16:15:08.012Z,3.50
2019-05-25T16:17:36.922Z,2.33
2019-05-25T16:20:06.043Z,2.00
2019-05-25T16:22:34.867Z,2.33
2019-05-25T16:25:04.466Z,2.63
2019-05-25T16:27:33.073Z,3.77
2019-05-25T16:30:01.575Z,3.13
2019-05-25T16:32:30.233Z,2.87
2019-05-25T16:34:58.803Z,3.23
2019-05-25T16:37:27.395Z,2.70
2019-05-25T16:39:56.031Z,2.40
2019-05-25T16:42:24.675Z,2.37
2019-05-25T16:44:53.334Z,2.00
2019-05-25T16:47:21.991Z,1.80
2019-05-25T16:49:50.530Z,2.43
2019-05-25T16:52:19.142Z,2.40
2019-05-25T16:54:47.838Z,3.13
2019-05-25T16:57:16.342Z,2.23
2019-05-25T16:59:44.892Z,2.10
2019-05-25T17:02:13.657Z,2.13
2019-05-25T17:04:42.363Z,2.07
2019-05-25T17:07:10.910Z,2.13
2019-05-25T17:09:39.556Z,3.50
2019-05-25T17:12:08.477Z,2.90
2019-05-25T17:14:37.427Z,2.50
2019-05-25T17:17:06.047Z,3.53
2019-05-25T17:19:34.667Z,5.10
2019-05-25T17:22:03.516Z,3.40
2019-05-25T17:24:32.127Z,4.10
2019-05-25T17:27:00.685Z,2.03
2019-05-25T17:29:29.240Z,2.70
2019-05-25T17:31:57.988Z,2.47
2019-05-25T17:34:26.736Z,2.27
2019-05-25T17:36:55.585Z,2.40
2019-05-25T17:39:25.402Z,2.47
2019-05-25T17:41:53.976Z,2.70
2019-05-25T17:44:22.662Z,2.87
2019-05-25T17:46:53.443Z,2.17
2019-05-25T17:49:22.006Z,3.10
2019-05-25T17:51:50.647Z,2.47
2019-05-25T17:54:19.270Z,2.47
2019-05-25T17:56:47.955Z,2.93
2019-05-25T17:59:16.635Z,2.80
2019-05-25T18:01:45.243Z,3.40
2019-05-25T18:04:13.828Z,2.90
2019-05-25T18:06:42.460Z,3.00
2019-05-25T18:09:11.128Z,2.83
2019-05-25T18:11:39.603Z,2.07
2019-05-25T18:14:08.318Z,2.60
2019-05-25T18:16:36.957Z,2.90
2019-05-25T18:19:05.932Z,3.30
2019-05-25T18:21:34.700Z,3.53
2019-05-25T18:24:03.286Z,1.97
2019-05-25T18:26:31.929Z,2.63
2019-05-25T18:29:00.533Z,1.87
2019-05-25T18:31:29.108Z,2.60
2019-05-25T18:33:57.972Z,3.40
2019-05-25T18:36:26.659Z,3.10
2019-05-25T18:38:55.402Z,2.50
2019-05-25T18:41:24.558Z,2.80
2019-05-25T18:43:53.154Z,2.90
2019-05-25T18:46:21.821Z,4.07
2019-05-25T18:48:50.348Z,2.73
2019-05-25T18:51:19.031Z,3.60
2019-05-25T18:53:47.572Z,3.43
2019-05-25T18:56:16.250Z,2.83
2019-05-25T18:58:44.791Z,2.90
2019-05-25T19:01:13.360Z,3.10
2019-05-25T19:03:42.523Z,2.80
2019-05-25T19:06:11.249Z,2.40
2019-05-25T19:08:39.955Z,2.93
2019-05-25T19:11:08.507Z,3.40
2019-05-25T19:13:37.287Z,3.20
2019-05-25T19:16:05.973Z,3.20
2019-05-25T19:18:34.579Z,3.70
2019-05-25T19:21:03.127Z,4.03
2019-05-25T19:23:31.713Z,3.40
2019-05-25T19:26:00.310Z,3.80
2019-05-25T19:28:28.781Z,5.23
2019-05-25T19:30:57.294Z,4.17
2019-05-25T19:33:26.013Z,4.40
2019-05-25T19:35:54.750Z,4.67
2019-05-25T19:38:23.443Z,5.30
2019-05-25T19:40:52.081Z,3.83
2019-05-25T19:43:20.594Z,4.17
2019-05-25T19:45:49.302Z,4.07
2019-05-25T19:48:17.824Z,6.50
2019-05-25T19:50:46.428Z,6.47
2019-05-25T19:53:15.050Z,6.50
2019-05-25T19:55:43.746Z,5.40
2019-05-25T19:58:12.329Z,4.57
2019-05-25T20:00:41.071Z,4.07
2019-05-25T20:03:09.777Z,3.40
2019-05-25T20:05:38.391Z,3.53
2019-05-25T20:08:06.959Z,4.27
2019-05-25T20:10:35.561Z,3.53
2019-05-25T20:13:04.328Z,3.87
2019-05-25T20:15:32.978Z,4.40
2019-05-25T20:18:01.536Z,4.50
2019-05-25T20:20:30.209Z,4.87
2019-05-25T20:22:58.738Z,4.40
2019-05-25T20:25:27.461Z,4.60
2019-05-25T20:27:56.067Z,3.97
2019-05-25T20:30:24.655Z,4.33
2019-05-25T20:32:53.240Z,4.87
2019-05-25T20:35:32.308Z,4.50
2019-05-25T20:37:51.950Z,4.07
2019-05-25T20:40:20.782Z,3.10
2019-05-25T20:42:49.328Z,2.90
2019-05-25T20:45:17.992Z,3.20
2019-05-25T20:47:46.669Z,2.90
2019-05-25T20:50:15.726Z,3.83
2019-05-25T20:52:44.477Z,3.00
2019-05-25T20:55:13.256Z,2.60
2019-05-25T20:57:41.801Z,3.00
2019-05-25T21:00:11.135Z,2.80
2019-05-25T21:02:39.699Z,2.87
2019-05-25T21:05:11.489Z,2.93
2019-05-25T21:07:40.153Z,3.07
2019-05-25T21:10:08.994Z,2.80
2019-05-25T21:12:37.619Z,2.90
2019-05-25T21:15:08.294Z,2.73
2019-05-25T21:17:37.107Z,3.07
2019-05-25T21:20:07.010Z,3.00
2019-05-25T21:22:35.745Z,3.63
2019-05-25T21:25:09.449Z,4.43
2019-05-25T21:27:37.995Z,7.63
2019-05-25T21:30:09.338Z,4.13
2019-05-25T21:32:37.944Z,3.30
2019-05-25T21:35:07.127Z,3.30
2019-05-25T21:37:35.812Z,3.70
2019-05-25T21:40:07.255Z,3.37
2019-05-25T21:42:35.961Z,3.53
2019-05-25T21:45:06.284Z,3.80
2019-05-25T21:47:35.114Z,3.97
2019-05-25T21:50:04.583Z,4.33
2019-05-25T21:52:33.301Z,4.80
2019-05-25T21:55:01.945Z,4.63
2019-05-25T21:57:30.624Z,4.00
2019-05-25T21:59:59.268Z,3.50
2019-05-25T22:02:27.963Z,4.33
2019-05-25T22:04:56.785Z,4.20
2019-05-25T22:07:25.519Z,4.10
2019-05-25T22:09:54.063Z,5.80
2019-05-25T22:12:22.627Z,5.97
2019-05-25T22:14:51.211Z,5.67
2019-05-25T22:17:19.744Z,6.00
2019-05-25T22:19:48.330Z,5.23
2019-05-25T22:22:16.957Z,5.20
2019-05-25T22:24:45.532Z,5.40
2019-05-25T22:27:14.165Z,4.27
2019-05-25T22:29:42.899Z,4.57
2019-05-25T22:32:11.529Z,4.53
2019-05-25T22:34:40.167Z,4.63
2019-05-25T22:37:08.791Z,4.60
2019-05-25T22:39:37.330Z,4.70
2019-05-25T22:42:06.076Z,4.90
2019-05-25T22:44:34.683Z,5.10
2019-05-25T22:47:03.313Z,5.63
2019-05-25T22:49:31.875Z,5.40
2019-05-25T22:52:00.503Z,5.43
2019-05-25T22:54:29.128Z,6.07
2019-05-25T22:56:57.695Z,6.40
2019-05-25T22:59:26.264Z,5.90
2019-05-25T23:01:54.808Z,5.97
2019-05-25T23:04:23.329Z,6.23
2019-05-25T23:06:57.737Z,5.60
2019-05-25T23:09:23.667Z,5.47
2019-05-25T23:11:52.395Z,4.83
2019-05-25T23:14:20.982Z,4.97
2019-05-25T23:16:49.460Z,4.13
2019-05-25T23:19:17.983Z,4.30
2019-05-25T23:21:46.585Z,4.37
2019-05-25T23:24:15.206Z,4.90
2019-05-25T23:26:43.767Z,4.20
2019-05-25T23:29:12.313Z,4.53
2019-05-25T23:31:40.942Z,4.27
2019-05-25T23:34:09.547Z,4.30
2019-05-25T23:36:38.140Z,4.50
2019-05-25T23:39:07.116Z,5.07
2019-05-25T23:41:35.778Z,4.90
2019-05-25T23:44:04.472Z,4.80
2019-05-25T23:46:33.104Z,4.73
2019-05-25T23:49:01.813Z,4.80
2019-05-25T23:51:32.061Z,4.60
2019-05-25T23:54:00.718Z,4.87
2019-05-25T23:56:29.449Z,4.33
2019-05-25T23:58:57.922Z,4.17
